St. George, Utah Weather observations

Data are for observation ending at time listed.
 Day   Time    Ave.   Ave.  Ave.  Vector   Max.   Stn.    Total    Solar   Ave.  
  of    of     Air    Rel.  Wind   Wind    Wind   Baro.  Precip.   Rad.    Soil  
Year   Day     Temp.  Hum.  Speed  Dir.    Gust   Pres.                    Temp. 
2014   (MST)    F      %     mph   deg.    mph     mb.     in.     W/m2     F   
------------------------------------------------------------------------------
 106   22:50   66.0    21    2.4    14      5.1   916.0    0.00       0    67.6
 106   23:00   66.0    20    2.5    15      5.6   916.2    0.00       0    67.5
 106   23:10   65.7    22    1.0   321      2.8   916.2    0.00       0    67.4
 106   23:20   64.3    23    0.7   311      2.1   916.3    0.00       0    67.4
 106   23:30   64.0    24    2.3   299      7.7   916.5    0.00       0    67.3
 106   23:40   64.5    23    2.4   291      5.9   916.7    0.00       0    67.2
 106   23:50   64.2    23    1.8   276      4.0   916.7    0.00       0    67.1
 107    0:00   64.1    23    1.7   289      4.7   916.7    0.00       0    67.0
 107    0:10   63.0    26    1.1   127      2.4   916.9    0.00       0    66.9
 107    0:20   61.4    28    0.3   240      1.2   917.0    0.00       0    66.8
 107    0:30   61.2    27    0.9   321      3.1   917.1    0.00       0    66.7
 107    0:40   61.1    28    0.4    90      1.5   917.3    0.00       0    66.6
 107    0:50   60.2    31    0.8    36      2.0   917.3    0.00       0    66.5
 107    1:00   59.9    30    0.5    31      2.3   917.4    0.00       0    66.5
 107    1:10   60.7    27    1.4   357      2.9   917.5    0.00       0    66.4
 107    1:20   60.5    29    1.4   356      3.7   917.4    0.00       0    66.3
 107    1:30   59.9    29    0.5   309      2.6   917.4    0.00       0    66.2
 107    1:40   59.1    30    1.3   345      2.3   917.4    0.00       0    66.1
 107    1:50   59.5    29    1.3   344      2.3   917.4    0.00       0    66.0
 107    2:00   59.7    28    0.5   228      1.5   917.6    0.00       0    65.9
 107    2:10   59.7    29    0.5    45      2.2   917.6    0.00       0    65.8
 107    2:20   59.6    28    0.6    59      1.7   917.7    0.00       0    65.7
 107    2:30   58.9    29    0.3   173      0.9   917.8    0.00       0    65.6
 107    2:40   57.9    32    0.6   354      1.8   917.8    0.00       0    65.6
 107    2:50   57.4    33    0.9    18      1.5   917.8    0.00       0    65.5
 107    3:00   57.6    31    1.1    17      2.4   917.8    0.00       0    65.4
 107    3:10   58.2    29    0.8    22      2.6   917.9    0.00       0    65.3
 107    3:20   57.9    30    0.2   340      1.0   917.9    0.00       0    65.2
 107    3:30   56.6    32    0.8   335      1.8   917.9    0.00       0    65.1
 107    3:40   55.9    34    1.4   348      1.9   917.9    0.00       0    65.0
 107    3:50   55.3    39    0.5    23      1.6   917.9    0.00       0    65.0
 107    4:00   54.6    39    0.1   159      1.2   918.0    0.00       0    64.9
 107    4:10   54.6    39    1.2   359      2.1   918.0    0.00       0    64.8
 107    4:20   55.0    39    0.5     9      2.0   918.1    0.00       0    64.7
 107    4:30   54.7    38    0.5    40      2.3   918.2    0.00       0    64.6
 107    4:40   55.8    34    0.5    26      1.8   918.2    0.00       0    64.5
 107    4:50   54.9    36    0.7   316      1.5   918.3    0.00       0    64.4
 107    5:00   53.8    42    0.6   199      2.2   918.4    0.00       0    64.4
 107    5:10   52.9    45    0.1   227      0.7   918.6    0.00       0    64.3
 107    5:20   51.9    50    0.9     4      1.7   918.7    0.00       0    64.2
 107    5:30   51.8    47    0.7   344      1.6   918.7    0.00       0    64.1
 107    5:40   52.2    44    1.3   358      2.2   918.7    0.00       0    64.0
 107    5:50   52.6    44    0.6   134      1.9   918.8    0.00       0    63.9
 107    6:00   51.8    47    0.4   154      2.0   919.0    0.00       3    63.9
 107    6:10   50.9    46    0.6   136      1.8   919.1    0.00       7    63.8
 107    6:20   50.4    48    0.0   236      0.7   919.3    0.00      13    63.7
 107    6:30   50.5    49    0.2   333      1.0   919.4    0.00      19    63.6
 107    6:40   51.3    48    0.9   244      2.0   919.6    0.00      24    63.5
 107    6:50   51.8    47    0.4   315      1.8   919.7    0.00      28    63.4
 107    7:00   52.9    44    0.8   229      1.6   919.8    0.00      30    63.3
 107    7:10   53.9    40    1.4   212      2.3   920.0    0.00      36    63.2
 107    7:20   54.5    40    0.8   203      1.5   920.0    0.00      41    63.2
 107    7:30   55.1    40    2.5   189      3.7   920.1    0.00      56    63.1
 107    7:40   55.7    39    2.2   200      3.3   920.3    0.00     162    63.0
 107    7:50   56.6    37    1.5   180      2.4   920.4    0.00     297    62.9
 107    8:00   57.4    35    1.9   172      4.5   920.3    0.00     335    62.9
 107    8:10   58.1    34    2.3   187      4.2   920.3    0.00     373    62.8
 107    8:20   59.3    32    2.5   184      4.3   920.3    0.00     411    62.7
 107    8:30   60.7    31    2.0   178      4.6   920.3    0.00     447    62.7
 107    8:40   62.3    29    1.8   186      3.7   920.4    0.00     483    62.7
 107    8:50   63.6    28    2.1   172      4.7   920.3    0.00     516    62.7
 107    9:00   64.1    27    2.1   169      4.8   920.2    0.00     550    62.7
 107    9:10   64.9    26    1.7   172      4.2   920.1    0.00     583    62.7
 107    9:20   65.4    25    2.9   192      5.6   920.1    0.00     614    62.7
 107    9:30   65.8    25    2.2   182      4.0   920.0    0.00     645    62.7
 107    9:40   66.8    23    2.2   183      6.9   920.0    0.00     674    62.8
 107    9:50   66.6    24    2.0   173      5.3   919.9    0.00     702    62.8
 107   10:00   66.7    23    2.8   198      5.4   919.8    0.00     731    62.9
 107   10:10   67.9    22    1.9   186      3.9   919.7    0.00     752    62.9
 107   10:20   68.9    21    2.5   194      4.9   919.6    0.00     779    63.0
 107   10:30   70.0    22    1.8   123      3.9   919.5    0.00     796    63.1
 107   10:40   71.5    21    1.2    82      4.5   919.4    0.00     820    63.2
 107   10:50   72.6    19    1.7   179      4.1   919.2    0.00     837    63.3
 107   11:00   72.6    19    2.9   192      5.5   919.1    0.00     857    63.4
 107   11:10   73.3    18    2.9   195      5.7   918.8    0.00     875    63.5
 107   11:20   74.4    18    2.2   122      6.4   918.7    0.00     887    63.6
 107   11:30   74.2    18    2.1   172      4.7   918.6    0.00     903    63.7
 107   11:40   75.5    17    2.7   302      5.3   918.4    0.00     914    63.9
 107   11:50   76.6    16    2.3   146      5.1   918.3    0.00     923    64.0
 107   12:00   77.7    16    1.7    61      3.4   918.0    0.00     928    64.2
 107   12:10   78.7    16    1.4    97      3.9   917.9    0.00     933    64.4
 107   12:20   79.1    14    1.5   131      3.6   917.8    0.00     934    64.6
 107   12:30   79.2    15    1.4    98      3.1   917.6    0.00     934    64.8
 107   12:40   79.2    14    1.8    18      4.2   917.4    0.00     937    65.0
 107   12:50   79.5    15    1.4    78      3.8   917.4    0.00     936    65.2
 107   13:00   80.2    15    1.0    44      3.4   917.2    0.00     931    65.5
 107   13:10   80.7    13    3.0   288      6.4   917.0    0.00     933    65.8
 107   13:20   81.1    13    1.3   232      4.0   916.9    0.00     933    66.0
 107   13:30   81.5    14    1.0    89      6.1   916.7    0.00     921    66.3
 107   13:40   81.9    13    2.7   193      6.2   916.5    0.00     900    66.6
 107   13:50   82.5    13    3.8   202      7.2   916.3    0.00     886    66.9
 107   14:00   82.4    13    2.4   150      6.4   916.2    0.00     902    67.2
 107   14:10   82.8    12    3.0   200      6.5   916.1    0.00     887    67.5
 107   14:20   83.0    12    2.9   155      6.6   915.9    0.00     869    67.8
 107   14:30   83.8    12    3.6   182     11.9   915.8    0.00     839    68.1
 107   14:40   83.7    12    4.3   205      8.7   915.7    0.00     837    68.4
 107   14:50   84.4    12    2.5   243      6.1   915.5    0.00     814    68.6
 107   15:00   84.4    12    1.9   227      6.6   915.3    0.00     788    68.9
 107   15:10   85.5    12    3.2   206      6.9   915.1    0.00     762    69.2
 107   15:20   86.1    11    4.0   230     11.0   914.4    0.00     741    69.4
 107   15:30   86.3    11    3.9   264      8.9   914.2    0.00     716    69.7
 107   15:40   85.9    11    5.7   248     11.6   914.4    0.00     693    69.9
 107   15:50   85.5    11    5.5   240     14.2   914.6    0.00     668    70.2
 107   16:00   85.3    11    5.5   250     13.7   914.3    0.00     641    70.4
 107   16:10   85.8    11    4.2   256     11.2   914.0    0.00     610    70.6
 107   16:20   85.7    11    6.3   239     13.9   914.0    0.00     579    70.8
 107   16:30   85.6    10    6.3   244     13.8   913.7    0.00     534    71.0
 107   16:40   86.1    10    4.4   268     13.8   913.7    0.00     503    71.2
 107   16:50   85.7    10    6.1   244     13.3   913.7    0.00     449    71.3
 107   17:00   86.0    10    3.5   249     11.2   913.6    0.00     391    71.5
 107   17:10   85.5    10    5.2   242     11.1   913.5    0.00     423    71.6
 107   17:20   84.8    10    6.8   240     13.0   913.5    0.00     380    71.7
 107   17:30   84.7    10    5.5   248     12.6   913.5    0.00     326    71.8
 107   17:40   84.7    11    4.2   262     13.7   913.5    0.00     274    71.9
 107   17:50   84.3    11    4.7   255     12.5   913.5    0.00     255    71.9
 107   18:00   84.4    11    4.6   247     14.1   913.5    0.00     212    71.9
 107   18:10   83.7    11    3.4   249     10.3   913.4    0.00     106    72.0
 107   18:20   82.9    11    3.6   256     10.7   913.4    0.00      71    72.0
 107   18:30   82.5    11    3.8   250     10.2   913.5    0.00      76    72.0
 107   18:40   82.1    11    3.1   251      6.9   913.5    0.00      48    72.0
 107   18:50   81.6    12    3.4   263      8.4   913.5    0.00      30    72.0
 107   19:00   81.0    12    1.9   268      7.7   913.5    0.00      17    72.0
 107   19:10   80.5    12    2.9   254      8.6   913.5    0.00       6    71.9
 107   19:20   80.6    11    4.1   252     10.5   913.5    0.00       3    71.9
 107   19:30   80.3    11    2.9   256      9.1   913.5    0.00       0    71.8
 107   19:40   79.7    11    2.4   252      7.2   913.6    0.00       0    71.7
 107   19:50   79.4    11    2.9   255      8.0   913.7    0.00       0    71.7
 107   20:00   79.3    11    2.8   249      7.9   913.9    0.00       0    71.6
 107   20:10   78.8    12    2.3   245      6.9   914.1    0.00       0    71.5
 107   20:20   78.6    11    3.6   240     10.4   914.2    0.00       0    71.5
 107   20:30   78.5    11    3.3   244      8.3   914.3    0.00       0    71.4
 107   20:40   78.6    11    3.5   245     10.4   914.5    0.00       0    71.3
 107   20:50   78.5    11    2.8   249      6.7   914.7    0.00       0    71.2
 107   21:00   77.7    12    2.2   243      6.7   914.8    0.00       0    71.2
 107   21:10   76.5    12    1.1   123      2.4   914.8    0.00       0    71.1
 107   21:20   74.8    14    1.0    63      2.8   914.9    0.00       0    71.0
 107   21:30   73.3    16    1.4    38      3.5   915.0    0.00       0    71.0
 107   21:40   73.2    15    1.8    33      3.5   915.0    0.00       0    70.9
 107   21:50   72.8    16    1.4    35      2.9   915.1    0.00       0    70.8
 107   22:00   73.0    15    1.3    44      2.6   915.1    0.00       0    70.8
 107   22:10   72.0    16    1.1    15      2.5   915.2    0.00       0    70.7
 107   22:20   72.1    16    1.4    44      2.4   915.2    0.00       0    70.6
 107   22:30   71.8    16    1.7    30      3.6   915.3    0.00       0    70.5
 107   22:40   72.7    14    2.2    19      6.1   915.3    0.00       0    70.4

Return to St. George, Utah graphs page.


Western Regional Climate Center,wrcc@dri.edu